Strona główna
METAR-TAF:

METAR-TAF

Lotnisko :

Doncaster Sheffield, Anglia

Port lotniczy Doncaster/Sheffield

Szerokość geograficzna: 53-29N, Długość geograficzna: 001-00W, wysokość: 17 m

Aktualna obserwacja pogody

Raport powstał 17 minut temu, godzina 04:50 UTC
Wiatr 5 kt od zachodnio-północny zachód
Temperatura 10°C
Wilgotność 82%
Ciśnienie 1015 hPa
Widzialność 10 km lub więcej
Brak chmur poniżej 1500 m i brak chmur cumulonimbus

METAR: EGCN 260450Z 30005KT CAVOK 10/07 Q1015

czas: 06:07 (05:07 UTC)

Prognoza

Raport powstał 6 godziny i 13 minut temu, godzina 22:54 UTC
Prognoza ważna od 26 godzina 00 UTC do 26 godzina 24 UTC
Wiatr 7 kt od zachód
Widzialność 10 km lub więcej
Mało chmury na wysokości 3500 ft
Stopniowe zmiany
od 26 godzina 17 UTC do 26 godzina 20 UTC
Wiatr 10 kt od wschodnio-południowy wschód
Prawdopodobieństwo 30% :
Przejściowo
od 26 godzina 22 UTC do 26 godzina 24 UTC
Widzialność: 6000 m
deszcz

TAF: EGCN 252254Z 2600/2624 27007KT 9999 FEW035 BECMG 2617/2620 11010KT PROB30 TEMPO 2622/2624 6000 RA

Obserwacja i prognoza pogody dla ponad 4000 lotnisk (raport METAR i TAF).

Dostępne stacje oznaczono żółtymi i czerwonymi punktami na mapie.

Najedź kursorem aby zobaczyć nazwę stacji.

Kliknij aby zobaczyć obserwacje i prognozy pogody.

Aby zmienić mapę: kliknij na zielony przycisk z czarnym krzyżykiem, aby powiększyć; na zielony przycisk z myślnikiem, aby pomniejszyć; na zielone strzałki, aby przejść do map sąsiednich.


METAR-TAF: